CST,Max TemperatureF,Mean TemperatureF,Min TemperatureF,Max Dew PointF,MeanDew PointF,Min DewpointF,Max Humidity, Mean Humidity, Min Humidity, Max Sea Level PressureIn, Mean Sea Level PressureIn, Min Sea Level PressureIn, Max VisibilityMiles, Mean VisibilityMiles, Min VisibilityMiles, Max Wind SpeedMPH, Mean Wind SpeedMPH, Max Gust SpeedMPH,PrecipitationIn, CloudCover, Events, WindDirDegrees
2013-2-1,73,62,50,47,44,36,69,50,39,30.31,30.23,30.16,10,10,10,16,7,23,0.00,4,,129
2013-2-2,80,66,53,56,47,40,80,51,24,30.23,30.17,30.12,10,10,10,8,3,,0.00,2,,120
2013-2-3,77,65,53,57,52,41,94,64,34,30.27,30.16,30.01,10,10,4,17,6,23,0.00,4,,119
2013-2-4,86,72,58,56,50,41,82,52,20,30.00,29.87,29.77,10,10,10,12,5,,0.00,1,,116
2013-2-5,89,72,54,61,49,42,91,48,19,29.96,29.88,29.81,10,10,4,24,3,43,0.22,1,Rain-Thunderstorm,110
2013-2-6,82,72,62,67,63,59,94,77,44,29.92,29.87,29.77,10,9,3,15,4,18,0.01,5,Rain,68
2013-2-7,79,69,59,65,61,55,95,81,44,30.00,29.93,29.88,10,7,1,12,4,,0.00,5,,18
2013-2-8,76,68,59,61,47,38,94,56,25,30.20,30.09,30.00,10,9,4,14,5,21,0.00,4,,58
2013-2-9,85,72,60,65,60,52,94,70,37,30.03,29.88,29.71,10,9,3,20,11,29,0.02,6,Rain,129
2013-2-10,81,74,66,64,57,38,91,62,33,29.95,29.81,29.73,10,8,4,13,7,16,0.00,2,,26
2013-2-11,77,68,59,57,50,40,81,58,37,29.99,29.92,29.83,10,10,7,14,6,17,0.02,6,Rain,22
2013-2-12,76,66,57,57,52,41,95,67,28,30.00,29.89,29.82,10,8,2,15,6,20,0.00,5,Rain,354
2013-2-13,69,59,49,50,25,13,59,28,12,30.19,30.07,30.00,10,10,10,13,8,18,0.00,3,,5
2013-2-14,76,56,35,41,31,21,80,42,13,30.15,30.06,29.98,10,10,10,14,4,17,0.00,0,,134
2013-2-15,77,62,46,48,40,28,83,49,17,30.28,30.11,30.03,10,10,4,12,5,21,0.00,2,,102
2013-2-16,67,54,42,43,28,17,74,40,15,30.50,30.35,30.26,10,10,10,17,6,23,0.00,2,Rain,26
2013-2-17,76,60,44,55,42,26,72,52,31,30.26,30.08,29.94,10,10,10,22,10,32,0.00,2,,136
2013-2-18,87,75,63,59,48,26,83,50,11,29.99,29.90,29.83,10,10,10,15,9,21,0.00,2,,118
2013-2-19,73,64,56,59,50,36,94,60,34,30.17,30.05,29.99,10,10,4,18,8,29,0.00,5,,88
2013-2-20,84,74,64,62,60,56,91,66,37,29.98,29.79,29.61,10,10,4,20,12,30,0.00,5,Rain,128
2013-2-21,80,68,55,64,52,29,94,59,19,29.83,29.69,29.57,10,9,3,17,9,23,0.00,0,,58
2013-2-22,81,66,52,41,38,32,53,36,22,29.93,29.85,29.79,10,10,10,14,6,20,0.00,2,,38
2013-2-23,73,63,53,41,37,34,51,40,25,30.05,29.94,29.87,10,10,10,12,5,,0.00,2,,12
2013-2-24,80,66,53,62,54,41,91,66,43,29.89,29.75,29.58,10,10,7,15,7,22,0.00,3,,131
2013-2-25,75,64,51,63,19,-27,94,31,4,29.95,29.75,29.54,10,8,0,33,14,45,0.00,1,Fog,331
2013-2-26,75,56,38,25,13,-6,45,21,4,30.06,29.94,29.85,10,10,10,12,4,17,0.00,0,,184
2013-2-27,76,58,39,41,19,1,77,29,5,30.18,30.03,29.85,10,10,10,24,8,31,0.00,0,,345
2013-2-28,66,56,45,21,17,9,36,23,11,30.33,30.25,30.18,10,10,10,13,5,22,0.00,0,,9